Massey Lake, Texas
Current Conditions -  °F | °C
As of 4:35 PM on Monday 24 Nov 2014 (Local Time) from KPSN Reporting Station
Clear Clear  
Wind Chill: 60°   Ceiling: Unl
Heat Index: 60°   Visibility: 10mi
Dew Point: 28°   Wind: 7mph
Humidity: 30%   Direction: 320°NW
Pressure: 30.05"   Gusts: NA
Location:  31.8848°N, 95.9198°W
Report Text: KPSN 242235Z AUTO 32006KT 10SM CLR 15/M02 A3005 RMK AO2 T01531021
Loading
Personal Weather Stations






























Interactive Weather Map New forecast layout! Learn more

10-Day Weather Forecast

Advertisements
Track Severe Weather on mobile